Terminal Aerodrome Forecast
Issued by NWS

Home | Current Version | Previous Version | Text Only | Print | Product List | Glossary On
Versions: 1 2 3 4 5 6 7 8 9 10 11 12 13 14 15 16 17 18 19 20 21
000
FTUS46 KLOX 250300 AAA
TAFPRB
TAF AMD
KPRB 250359Z 2504/2524 31015KT P6SM SCT250
     FM250600 32010KT P6SM SCT250
     FM250900 30008KT P6SM SCT050 OVC100
      TEMPO 2511/2515 -RA BKN060
     FM251500 23006KT P6SM -RA OVC020
     FM251800 29009KT 6SM BR OVC015
     FM252100 32008KT P6SM OVC025=

USA.gov is the U.S. government's official web portal to all federal, state and local government web resources and services.